Gerald R Ford International Airport (GRR)


Airport Diagram
Current Weather/Forecast (MVFR Conditions)
METAR KGRR 301753Z 31013KT 10SM FEW020 BKN028 OVC035 06/02 A3004 RMK AO2 RAE28 CIG 019 RWY 8R SLP178 P0000 60000 T00560017 10056 20033 51014
TAF KGRR 301140Z 3012/3112 30012G20KT P6SM OVC011 FM310100 34010KT P6SM OVC025 FM310500 35006KT P6SM BKN035

All Charts
General
Chart Name Download
AIRPORT DIAGRAM
TAKEOFF MINIMUMS
ALTERNATE MINIMUMS
RADAR MINIMUMS
HOT SPOT

Approaches
Chart Name Download
ILS OR LOC RWY 08R
ILS OR LOC RWY 26L
ILS OR LOC RWY 35
ILS RWY 35 (SA CAT I - II)
RNAV (GPS) RWY 08L
RNAV (GPS) RWY 08R
RNAV (GPS) RWY 17
RNAV (GPS) RWY 26L
RNAV (GPS) RWY 26R
RNAV (GPS) RWY 35
VOR RWY 17